sensor_id;sensor_type;location;lat;lon;timestamp;P1;durP1;ratioP1;P2;durP2;ratioP2
4278;SDS011;2153;47.744;10.580;2023-03-03T00:00:35;54.33;;;24.20;;
4278;SDS011;2153;47.744;10.580;2023-03-03T00:03:03;52.93;;;23.47;;
4278;SDS011;2153;47.744;10.580;2023-03-03T00:05:32;59.70;;;24.77;;
4278;SDS011;2153;47.744;10.580;2023-03-03T00:08:00;57.30;;;25.90;;
4278;SDS011;2153;47.744;10.580;2023-03-03T00:10:28;64.87;;;26.70;;
4278;SDS011;2153;47.744;10.580;2023-03-03T00:12:55;63.77;;;25.90;;
4278;SDS011;2153;47.744;10.580;2023-03-03T00:15:22;66.90;;;26.87;;
4278;SDS011;2153;47.744;10.580;2023-03-03T00:17:50;61.23;;;25.00;;
4278;SDS011;2153;47.744;10.580;2023-03-03T00:20:21;57.07;;;23.60;;
4278;SDS011;2153;47.744;10.580;2023-03-03T00:22:54;61.60;;;26.00;;
4278;SDS011;2153;47.744;10.580;2023-03-03T00:25:25;58.47;;;25.30;;
4278;SDS011;2153;47.744;10.580;2023-03-03T00:27:58;53.17;;;24.57;;
4278;SDS011;2153;47.744;10.580;2023-03-03T00:30:32;69.20;;;25.87;;
4278;SDS011;2153;47.744;10.580;2023-03-03T00:32:59;62.63;;;26.67;;
4278;SDS011;2153;47.744;10.580;2023-03-03T00:35:26;67.17;;;28.67;;
4278;SDS011;2153;47.744;10.580;2023-03-03T00:37:55;60.47;;;26.20;;
4278;SDS011;2153;47.744;10.580;2023-03-03T00:40:24;70.20;;;26.83;;
4278;SDS011;2153;47.744;10.580;2023-03-03T00:42:54;54.20;;;24.00;;
4278;SDS011;2153;47.744;10.580;2023-03-03T00:45:27;61.07;;;25.23;;
4278;SDS011;2153;47.744;10.580;2023-03-03T00:47:56;58.93;;;25.83;;
4278;SDS011;2153;47.744;10.580;2023-03-03T00:50:25;63.60;;;25.63;;
4278;SDS011;2153;47.744;10.580;2023-03-03T00:53:01;62.97;;;25.13;;
4278;SDS011;2153;47.744;10.580;2023-03-03T00:55:30;59.70;;;27.07;;
4278;SDS011;2153;47.744;10.580;2023-03-03T00:57:58;60.53;;;25.43;;
4278;SDS011;2153;47.744;10.580;2023-03-03T01:00:25;69.53;;;28.03;;
4278;SDS011;2153;47.744;10.580;2023-03-03T01:02:52;66.17;;;26.20;;
4278;SDS011;2153;47.744;10.580;2023-03-03T01:05:19;66.77;;;26.33;;
4278;SDS011;2153;47.744;10.580;2023-03-03T01:07:46;60.77;;;25.60;;
4278;SDS011;2153;47.744;10.580;2023-03-03T01:10:13;62.03;;;26.57;;
4278;SDS011;2153;47.744;10.580;2023-03-03T01:12:40;64.50;;;26.20;;
4278;SDS011;2153;47.744;10.580;2023-03-03T01:15:09;58.50;;;26.40;;
4278;SDS011;2153;47.744;10.580;2023-03-03T01:17:37;59.33;;;25.13;;
4278;SDS011;2153;47.744;10.580;2023-03-03T01:20:05;53.87;;;23.30;;
4278;SDS011;2153;47.744;10.580;2023-03-03T01:22:33;64.83;;;25.60;;
4278;SDS011;2153;47.744;10.580;2023-03-03T01:25:00;57.33;;;25.20;;
4278;SDS011;2153;47.744;10.580;2023-03-03T01:27:28;53.70;;;24.20;;
4278;SDS011;2153;47.744;10.580;2023-03-03T01:29:54;63.17;;;27.40;;
4278;SDS011;2153;47.744;10.580;2023-03-03T01:32:23;63.23;;;24.83;;
4278;SDS011;2153;47.744;10.580;2023-03-03T01:34:50;56.30;;;24.53;;
4278;SDS011;2153;47.744;10.580;2023-03-03T01:37:17;55.50;;;23.40;;
4278;SDS011;2153;47.744;10.580;2023-03-03T01:39:46;59.70;;;25.83;;
4278;SDS011;2153;47.744;10.580;2023-03-03T01:42:14;58.60;;;24.93;;
4278;SDS011;2153;47.744;10.580;2023-03-03T01:44:40;55.07;;;24.37;;
4278;SDS011;2153;47.744;10.580;2023-03-03T01:47:07;58.93;;;24.53;;
4278;SDS011;2153;47.744;10.580;2023-03-03T01:49:38;54.73;;;24.00;;
4278;SDS011;2153;47.744;10.580;2023-03-03T01:52:10;56.27;;;25.70;;
4278;SDS011;2153;47.744;10.580;2023-03-03T01:54:44;56.03;;;23.53;;
4278;SDS011;2153;47.744;10.580;2023-03-03T01:57:17;54.87;;;24.23;;
4278;SDS011;2153;47.744;10.580;2023-03-03T01:59:48;59.03;;;21.80;;
4278;SDS011;2153;47.744;10.580;2023-03-03T02:02:18;57.50;;;23.70;;
4278;SDS011;2153;47.744;10.580;2023-03-03T02:04:46;53.07;;;24.30;;
4278;SDS011;2153;47.744;10.580;2023-03-03T02:07:15;57.33;;;22.23;;
4278;SDS011;2153;47.744;10.580;2023-03-03T02:09:45;51.80;;;21.67;;
4278;SDS011;2153;47.744;10.580;2023-03-03T02:12:17;54.17;;;23.20;;
4278;SDS011;2153;47.744;10.580;2023-03-03T02:14:45;55.93;;;23.37;;
4278;SDS011;2153;47.744;10.580;2023-03-03T02:17:12;54.37;;;21.83;;
4278;SDS011;2153;47.744;10.580;2023-03-03T02:19:41;59.60;;;23.50;;
4278;SDS011;2153;47.744;10.580;2023-03-03T02:22:16;52.80;;;23.63;;
4278;SDS011;2153;47.744;10.580;2023-03-03T02:24:49;60.47;;;23.20;;
4278;SDS011;2153;47.744;10.580;2023-03-03T02:27:22;52.33;;;21.90;;
4278;SDS011;2153;47.744;10.580;2023-03-03T02:29:48;54.23;;;22.33;;
4278;SDS011;2153;47.744;10.580;2023-03-03T02:32:16;54.63;;;22.03;;
4278;SDS011;2153;47.744;10.580;2023-03-03T02:34:44;51.20;;;21.33;;
4278;SDS011;2153;47.744;10.580;2023-03-03T02:37:12;54.37;;;22.40;;
4278;SDS011;2153;47.744;10.580;2023-03-03T02:39:39;50.03;;;19.70;;
4278;SDS011;2153;47.744;10.580;2023-03-03T02:42:07;60.97;;;22.30;;
4278;SDS011;2153;47.744;10.580;2023-03-03T02:44:39;51.30;;;22.03;;
4278;SDS011;2153;47.744;10.580;2023-03-03T02:47:06;51.43;;;21.70;;
4278;SDS011;2153;47.744;10.580;2023-03-03T02:49:33;54.67;;;21.47;;
4278;SDS011;2153;47.744;10.580;2023-03-03T02:52:02;52.40;;;23.00;;
4278;SDS011;2153;47.744;10.580;2023-03-03T02:54:29;57.70;;;22.30;;
4278;SDS011;2153;47.744;10.580;2023-03-03T02:56:57;50.17;;;21.27;;
4278;SDS011;2153;47.744;10.580;2023-03-03T02:59:24;52.97;;;21.37;;
4278;SDS011;2153;47.744;10.580;2023-03-03T03:01:52;50.43;;;21.80;;
4278;SDS011;2153;47.744;10.580;2023-03-03T03:04:20;51.57;;;22.07;;
4278;SDS011;2153;47.744;10.580;2023-03-03T03:06:48;50.97;;;20.67;;
4278;SDS011;2153;47.744;10.580;2023-03-03T03:09:15;58.40;;;22.00;;
4278;SDS011;2153;47.744;10.580;2023-03-03T03:11:43;54.50;;;22.33;;
4278;SDS011;2153;47.744;10.580;2023-03-03T03:14:10;53.47;;;20.00;;
4278;SDS011;2153;47.744;10.580;2023-03-03T03:16:38;48.60;;;20.90;;
4278;SDS011;2153;47.744;10.580;2023-03-03T03:19:06;59.53;;;22.73;;
4278;SDS011;2153;47.744;10.580;2023-03-03T03:21:33;52.80;;;22.13;;
4278;SDS011;2153;47.744;10.580;2023-03-03T03:24:00;58.27;;;23.77;;
4278;SDS011;2153;47.744;10.580;2023-03-03T03:26:27;60.47;;;24.87;;
4278;SDS011;2153;47.744;10.580;2023-03-03T03:28:54;60.77;;;24.03;;
4278;SDS011;2153;47.744;10.580;2023-03-03T03:31:21;64.37;;;25.03;;
4278;SDS011;2153;47.744;10.580;2023-03-03T03:33:48;54.60;;;21.60;;
4278;SDS011;2153;47.744;10.580;2023-03-03T03:36:17;61.53;;;23.90;;
4278;SDS011;2153;47.744;10.580;2023-03-03T03:38:44;59.90;;;22.23;;
4278;SDS011;2153;47.744;10.580;2023-03-03T03:41:11;54.90;;;22.90;;
4278;SDS011;2153;47.744;10.580;2023-03-03T03:43:38;64.90;;;24.67;;
4278;SDS011;2153;47.744;10.580;2023-03-03T03:46:05;54.10;;;23.50;;
4278;SDS011;2153;47.744;10.580;2023-03-03T03:48:32;60.43;;;24.13;;
4278;SDS011;2153;47.744;10.580;2023-03-03T03:50:59;61.77;;;23.60;;
4278;SDS011;2153;47.744;10.580;2023-03-03T03:53:27;63.13;;;24.17;;
4278;SDS011;2153;47.744;10.580;2023-03-03T03:55:54;54.97;;;22.30;;
4278;SDS011;2153;47.744;10.580;2023-03-03T03:58:21;57.70;;;23.60;;
4278;SDS011;2153;47.744;10.580;2023-03-03T04:00:47;62.20;;;22.93;;
4278;SDS011;2153;47.744;10.580;2023-03-03T04:03:14;59.63;;;23.20;;
4278;SDS011;2153;47.744;10.580;2023-03-03T04:05:41;55.47;;;21.73;;
4278;SDS011;2153;47.744;10.580;2023-03-03T04:08:08;53.53;;;22.67;;
4278;SDS011;2153;47.744;10.580;2023-03-03T04:10:37;55.17;;;22.40;;
4278;SDS011;2153;47.744;10.580;2023-03-03T04:13:04;58.87;;;23.13;;
4278;SDS011;2153;47.744;10.580;2023-03-03T04:15:31;61.83;;;23.40;;
4278;SDS011;2153;47.744;10.580;2023-03-03T04:17:57;56.10;;;22.03;;
4278;SDS011;2153;47.744;10.580;2023-03-03T04:20:24;64.10;;;25.70;;
4278;SDS011;2153;47.744;10.580;2023-03-03T04:22:51;54.13;;;22.13;;
4278;SDS011;2153;47.744;10.580;2023-03-03T04:25:19;52.47;;;21.80;;
4278;SDS011;2153;47.744;10.580;2023-03-03T04:27:47;54.80;;;22.70;;
4278;SDS011;2153;47.744;10.580;2023-03-03T04:30:14;55.83;;;22.03;;
4278;SDS011;2153;47.744;10.580;2023-03-03T04:32:41;53.93;;;20.70;;
4278;SDS011;2153;47.744;10.580;2023-03-03T04:35:08;54.00;;;22.77;;
4278;SDS011;2153;47.744;10.580;2023-03-03T04:37:36;52.13;;;22.53;;
4278;SDS011;2153;47.744;10.580;2023-03-03T04:40:03;58.43;;;22.77;;
4278;SDS011;2153;47.744;10.580;2023-03-03T04:42:31;53.50;;;22.50;;
4278;SDS011;2153;47.744;10.580;2023-03-03T04:45:00;57.40;;;21.80;;
4278;SDS011;2153;47.744;10.580;2023-03-03T04:47:26;59.07;;;23.17;;
4278;SDS011;2153;47.744;10.580;2023-03-03T04:49:53;65.30;;;24.20;;
4278;SDS011;2153;47.744;10.580;2023-03-03T04:52:20;60.67;;;23.40;;
4278;SDS011;2153;47.744;10.580;2023-03-03T04:54:46;50.93;;;20.77;;
4278;SDS011;2153;47.744;10.580;2023-03-03T04:57:13;54.53;;;22.00;;
4278;SDS011;2153;47.744;10.580;2023-03-03T04:59:40;55.27;;;22.87;;
4278;SDS011;2153;47.744;10.580;2023-03-03T05:02:08;52.73;;;21.80;;
4278;SDS011;2153;47.744;10.580;2023-03-03T05:04:37;56.70;;;22.00;;
4278;SDS011;2153;47.744;10.580;2023-03-03T05:07:04;62.23;;;23.40;;
4278;SDS011;2153;47.744;10.580;2023-03-03T05:09:30;51.37;;;22.17;;
4278;SDS011;2153;47.744;10.580;2023-03-03T05:11:57;57.07;;;21.87;;
4278;SDS011;2153;47.744;10.580;2023-03-03T05:14:24;52.23;;;22.57;;
4278;SDS011;2153;47.744;10.580;2023-03-03T05:16:52;51.73;;;22.30;;
4278;SDS011;2153;47.744;10.580;2023-03-03T05:19:20;51.87;;;21.83;;
4278;SDS011;2153;47.744;10.580;2023-03-03T05:21:47;53.20;;;22.40;;
4278;SDS011;2153;47.744;10.580;2023-03-03T05:24:14;58.93;;;22.50;;
4278;SDS011;2153;47.744;10.580;2023-03-03T05:26:41;54.47;;;23.07;;
4278;SDS011;2153;47.744;10.580;2023-03-03T05:29:08;60.43;;;22.07;;
4278;SDS011;2153;47.744;10.580;2023-03-03T05:31:35;55.97;;;23.00;;
4278;SDS011;2153;47.744;10.580;2023-03-03T05:34:02;56.83;;;22.57;;
4278;SDS011;2153;47.744;10.580;2023-03-03T05:36:30;56.27;;;22.57;;
4278;SDS011;2153;47.744;10.580;2023-03-03T05:38:57;52.33;;;21.37;;
4278;SDS011;2153;47.744;10.580;2023-03-03T05:41:23;53.63;;;21.80;;
4278;SDS011;2153;47.744;10.580;2023-03-03T05:43:50;49.23;;;20.93;;
4278;SDS011;2153;47.744;10.580;2023-03-03T05:46:17;54.03;;;23.37;;
4278;SDS011;2153;47.744;10.580;2023-03-03T05:48:44;53.90;;;20.67;;
4278;SDS011;2153;47.744;10.580;2023-03-03T05:51:11;53.87;;;22.43;;
4278;SDS011;2153;47.744;10.580;2023-03-03T05:53:39;55.50;;;22.50;;
4278;SDS011;2153;47.744;10.580;2023-03-03T05:56:06;55.57;;;22.93;;
4278;SDS011;2153;47.744;10.580;2023-03-03T05:58:32;52.07;;;21.00;;
4278;SDS011;2153;47.744;10.580;2023-03-03T06:00:59;54.87;;;21.87;;
4278;SDS011;2153;47.744;10.580;2023-03-03T06:03:26;45.87;;;19.80;;
4278;SDS011;2153;47.744;10.580;2023-03-03T06:05:53;58.73;;;23.30;;
4278;SDS011;2153;47.744;10.580;2023-03-03T06:08:19;51.37;;;21.40;;
4278;SDS011;2153;47.744;10.580;2023-03-03T06:10:47;52.73;;;22.40;;
4278;SDS011;2153;47.744;10.580;2023-03-03T06:13:14;50.00;;;21.97;;
4278;SDS011;2153;47.744;10.580;2023-03-03T06:15:41;54.10;;;23.50;;
4278;SDS011;2153;47.744;10.580;2023-03-03T06:18:08;69.63;;;25.80;;
4278;SDS011;2153;47.744;10.580;2023-03-03T06:20:35;69.13;;;24.40;;
4278;SDS011;2153;47.744;10.580;2023-03-03T06:23:02;63.43;;;25.80;;
4278;SDS011;2153;47.744;10.580;2023-03-03T06:25:29;57.90;;;22.97;;
4278;SDS011;2153;47.744;10.580;2023-03-03T06:28:01;71.13;;;26.33;;
4278;SDS011;2153;47.744;10.580;2023-03-03T06:30:27;59.93;;;25.37;;
4278;SDS011;2153;47.744;10.580;2023-03-03T06:32:54;65.30;;;25.30;;
4278;SDS011;2153;47.744;10.580;2023-03-03T06:35:21;59.23;;;26.73;;
4278;SDS011;2153;47.744;10.580;2023-03-03T06:37:48;61.03;;;26.37;;
4278;SDS011;2153;47.744;10.580;2023-03-03T06:40:15;72.67;;;25.63;;
4278;SDS011;2153;47.744;10.580;2023-03-03T06:42:42;71.77;;;28.63;;
4278;SDS011;2153;47.744;10.580;2023-03-03T06:45:10;68.97;;;27.97;;
4278;SDS011;2153;47.744;10.580;2023-03-03T06:47:37;64.13;;;26.20;;
4278;SDS011;2153;47.744;10.580;2023-03-03T06:50:04;63.10;;;26.00;;
4278;SDS011;2153;47.744;10.580;2023-03-03T06:52:32;62.60;;;24.80;;
4278;SDS011;2153;47.744;10.580;2023-03-03T06:55:00;59.83;;;24.87;;
4278;SDS011;2153;47.744;10.580;2023-03-03T06:57:34;60.80;;;23.93;;
4278;SDS011;2153;47.744;10.580;2023-03-03T07:00:09;66.60;;;25.90;;
4278;SDS011;2153;47.744;10.580;2023-03-03T07:02:42;57.73;;;23.10;;
4278;SDS011;2153;47.744;10.580;2023-03-03T07:05:10;58.10;;;26.60;;
4278;SDS011;2153;47.744;10.580;2023-03-03T07:07:40;62.20;;;24.53;;
4278;SDS011;2153;47.744;10.580;2023-03-03T07:10:21;60.17;;;24.50;;
4278;SDS011;2153;47.744;10.580;2023-03-03T07:12:49;59.20;;;22.70;;
4278;SDS011;2153;47.744;10.580;2023-03-03T07:15:19;60.07;;;24.57;;
4278;SDS011;2153;47.744;10.580;2023-03-03T07:17:48;61.93;;;27.57;;
4278;SDS011;2153;47.744;10.580;2023-03-03T07:20:18;65.53;;;29.70;;
4278;SDS011;2153;47.744;10.580;2023-03-03T07:22:47;53.77;;;23.10;;
4278;SDS011;2153;47.744;10.580;2023-03-03T07:25:18;62.13;;;26.30;;
4278;SDS011;2153;47.744;10.580;2023-03-03T07:27:57;60.67;;;23.87;;
4278;SDS011;2153;47.744;10.580;2023-03-03T07:30:37;55.47;;;23.50;;
4278;SDS011;2153;47.744;10.580;2023-03-03T07:33:04;60.50;;;24.57;;
4278;SDS011;2153;47.744;10.580;2023-03-03T07:35:40;55.30;;;24.17;;
4278;SDS011;2153;47.744;10.580;2023-03-03T07:38:27;55.53;;;25.30;;
4278;SDS011;2153;47.744;10.580;2023-03-03T07:40:57;54.83;;;22.33;;
4278;SDS011;2153;47.744;10.580;2023-03-03T07:43:28;58.13;;;25.57;;
4278;SDS011;2153;47.744;10.580;2023-03-03T07:46:01;53.47;;;23.93;;
4278;SDS011;2153;47.744;10.580;2023-03-03T07:48:41;51.10;;;23.77;;
4278;SDS011;2153;47.744;10.580;2023-03-03T07:51:11;54.00;;;24.40;;
4278;SDS011;2153;47.744;10.580;2023-03-03T07:53:41;62.43;;;25.83;;
4278;SDS011;2153;47.744;10.580;2023-03-03T07:56:14;50.53;;;23.17;;
4278;SDS011;2153;47.744;10.580;2023-03-03T07:58:44;59.30;;;24.13;;
4278;SDS011;2153;47.744;10.580;2023-03-03T08:04:09;50.17;;;21.73;;
4278;SDS011;2153;47.744;10.580;2023-03-03T08:06:48;51.57;;;21.60;;
4278;SDS011;2153;47.744;10.580;2023-03-03T08:09:36;50.83;;;23.40;;
4278;SDS011;2153;47.744;10.580;2023-03-03T08:15:16;48.87;;;22.33;;
4278;SDS011;2153;47.744;10.580;2023-03-03T08:17:48;55.57;;;23.03;;
4278;SDS011;2153;47.744;10.580;2023-03-03T08:20:38;54.10;;;24.37;;
4278;SDS011;2153;47.744;10.580;2023-03-03T08:23:09;52.80;;;26.13;;
4278;SDS011;2153;47.744;10.580;2023-03-03T08:25:37;54.87;;;24.73;;
4278;SDS011;2153;47.744;10.580;2023-03-03T08:28:04;51.50;;;23.10;;
4278;SDS011;2153;47.744;10.580;2023-03-03T08:30:31;56.47;;;25.43;;
4278;SDS011;2153;47.744;10.580;2023-03-03T08:32:59;54.17;;;25.90;;
4278;SDS011;2153;47.744;10.580;2023-03-03T08:35:26;53.10;;;24.20;;
4278;SDS011;2153;47.744;10.580;2023-03-03T08:37:53;49.53;;;22.30;;
4278;SDS011;2153;47.744;10.580;2023-03-03T08:40:20;54.87;;;24.43;;
4278;SDS011;2153;47.744;10.580;2023-03-03T08:42:47;50.47;;;22.40;;
4278;SDS011;2153;47.744;10.580;2023-03-03T08:45:14;51.20;;;22.23;;
4278;SDS011;2153;47.744;10.580;2023-03-03T08:47:40;49.00;;;22.47;;
4278;SDS011;2153;47.744;10.580;2023-03-03T08:50:10;50.37;;;23.00;;
4278;SDS011;2153;47.744;10.580;2023-03-03T08:52:38;56.17;;;23.83;;
4278;SDS011;2153;47.744;10.580;2023-03-03T08:55:05;57.73;;;25.53;;
4278;SDS011;2153;47.744;10.580;2023-03-03T08:57:32;54.00;;;25.53;;
4278;SDS011;2153;47.744;10.580;2023-03-03T08:59:59;57.00;;;23.60;;
4278;SDS011;2153;47.744;10.580;2023-03-03T09:02:25;58.40;;;26.67;;
4278;SDS011;2153;47.744;10.580;2023-03-03T09:04:52;53.37;;;24.10;;
4278;SDS011;2153;47.744;10.580;2023-03-03T09:07:20;55.70;;;25.57;;
4278;SDS011;2153;47.744;10.580;2023-03-03T09:09:47;59.87;;;26.50;;
4278;SDS011;2153;47.744;10.580;2023-03-03T09:12:15;58.30;;;24.87;;
4278;SDS011;2153;47.744;10.580;2023-03-03T09:14:44;58.70;;;26.33;;
4278;SDS011;2153;47.744;10.580;2023-03-03T09:17:18;54.37;;;25.67;;
4278;SDS011;2153;47.744;10.580;2023-03-03T09:19:50;54.63;;;24.53;;
4278;SDS011;2153;47.744;10.580;2023-03-03T09:22:18;52.17;;;23.80;;
4278;SDS011;2153;47.744;10.580;2023-03-03T09:24:47;55.77;;;25.90;;
4278;SDS011;2153;47.744;10.580;2023-03-03T09:27:18;62.17;;;25.63;;
4278;SDS011;2153;47.744;10.580;2023-03-03T09:29:52;50.33;;;24.27;;
4278;SDS011;2153;47.744;10.580;2023-03-03T09:38:00;55.30;;;26.07;;
4278;SDS011;2153;47.744;10.580;2023-03-03T09:40:38;53.30;;;24.97;;
4278;SDS011;2153;47.744;10.580;2023-03-03T09:43:20;55.00;;;26.27;;
4278;SDS011;2153;47.744;10.580;2023-03-03T09:46:00;62.63;;;27.40;;
4278;SDS011;2153;47.744;10.580;2023-03-03T09:48:38;58.57;;;25.47;;
4278;SDS011;2153;47.744;10.580;2023-03-03T09:51:18;62.53;;;27.60;;
4278;SDS011;2153;47.744;10.580;2023-03-03T09:56:45;56.63;;;27.33;;
4278;SDS011;2153;47.744;10.580;2023-03-03T09:59:27;60.77;;;26.97;;
4278;SDS011;2153;47.744;10.580;2023-03-03T10:02:09;59.60;;;27.63;;
4278;SDS011;2153;47.744;10.580;2023-03-03T10:04:57;60.27;;;27.10;;
4278;SDS011;2153;47.744;10.580;2023-03-03T10:10:52;54.73;;;26.40;;
4278;SDS011;2153;47.744;10.580;2023-03-03T10:13:33;58.37;;;27.00;;
4278;SDS011;2153;47.744;10.580;2023-03-03T10:16:17;63.07;;;27.80;;
4278;SDS011;2153;47.744;10.580;2023-03-03T10:18:59;56.83;;;28.93;;
4278;SDS011;2153;47.744;10.580;2023-03-03T10:21:29;57.17;;;28.00;;
4278;SDS011;2153;47.744;10.580;2023-03-03T10:24:01;60.17;;;27.27;;
4278;SDS011;2153;47.744;10.580;2023-03-03T10:26:47;62.77;;;29.37;;
4278;SDS011;2153;47.744;10.580;2023-03-03T10:29:31;60.10;;;27.60;;
4278;SDS011;2153;47.744;10.580;2023-03-03T10:32:09;66.00;;;28.93;;
4278;SDS011;2153;47.744;10.580;2023-03-03T10:34:52;61.97;;;29.27;;
4278;SDS011;2153;47.744;10.580;2023-03-03T10:37:41;60.43;;;27.73;;
4278;SDS011;2153;47.744;10.580;2023-03-03T10:40:16;60.90;;;29.17;;
4278;SDS011;2153;47.744;10.580;2023-03-03T10:42:55;61.07;;;28.43;;
4278;SDS011;2153;47.744;10.580;2023-03-03T10:45:34;63.97;;;28.17;;
4278;SDS011;2153;47.744;10.580;2023-03-03T10:48:32;68.77;;;28.63;;
4278;SDS011;2153;47.744;10.580;2023-03-03T10:51:18;70.20;;;28.30;;
4278;SDS011;2153;47.744;10.580;2023-03-03T10:53:53;66.40;;;29.07;;
4278;SDS011;2153;47.744;10.580;2023-03-03T10:56:32;55.50;;;27.53;;
4278;SDS011;2153;47.744;10.580;2023-03-03T10:59:16;60.40;;;28.50;;
4278;SDS011;2153;47.744;10.580;2023-03-03T11:02:02;62.83;;;27.90;;
4278;SDS011;2153;47.744;10.580;2023-03-03T11:04:42;55.13;;;25.60;;
4278;SDS011;2153;47.744;10.580;2023-03-03T11:07:23;59.40;;;29.07;;
4278;SDS011;2153;47.744;10.580;2023-03-03T11:10:02;58.27;;;27.23;;
4278;SDS011;2153;47.744;10.580;2023-03-03T11:12:41;66.40;;;28.67;;
4278;SDS011;2153;47.744;10.580;2023-03-03T11:18:16;67.07;;;30.97;;
4278;SDS011;2153;47.744;10.580;2023-03-03T11:20:52;71.27;;;30.33;;
4278;SDS011;2153;47.744;10.580;2023-03-03T11:23:44;72.70;;;31.37;;
4278;SDS011;2153;47.744;10.580;2023-03-03T11:26:24;66.43;;;30.20;;
4278;SDS011;2153;47.744;10.580;2023-03-03T11:29:07;62.30;;;28.37;;
4278;SDS011;2153;47.744;10.580;2023-03-03T11:31:42;69.57;;;29.10;;
4278;SDS011;2153;47.744;10.580;2023-03-03T11:34:16;64.07;;;30.27;;
4278;SDS011;2153;47.744;10.580;2023-03-03T11:36:52;59.20;;;28.40;;
4278;SDS011;2153;47.744;10.580;2023-03-03T11:39:23;68.53;;;29.47;;
4278;SDS011;2153;47.744;10.580;2023-03-03T11:41:55;72.43;;;32.00;;
4278;SDS011;2153;47.744;10.580;2023-03-03T11:44:31;263.07;;;109.13;;
4278;SDS011;2153;47.744;10.580;2023-03-03T11:47:02;184.85;;;79.25;;
4278;SDS011;2153;47.744;10.580;2023-03-03T11:49:37;160.73;;;67.57;;
4278;SDS011;2153;47.744;10.580;2023-03-03T11:52:13;69.87;;;30.80;;
4278;SDS011;2153;47.744;10.580;2023-03-03T11:54:50;81.50;;;39.97;;
4278;SDS011;2153;47.744;10.580;2023-03-03T11:57:20;71.15;;;35.15;;
4278;SDS011;2153;47.744;10.580;2023-03-03T11:59:59;68.00;;;35.15;;
4278;SDS011;2153;47.744;10.580;2023-03-03T12:05:46;74.97;;;35.50;;
4278;SDS011;2153;47.744;10.580;2023-03-03T12:08:33;65.00;;;30.73;;
4278;SDS011;2153;47.744;10.580;2023-03-03T12:11:07;86.47;;;41.73;;
4278;SDS011;2153;47.744;10.580;2023-03-03T12:13:44;64.87;;;31.43;;
4278;SDS011;2153;47.744;10.580;2023-03-03T12:16:18;55.80;;;27.00;;
4278;SDS011;2153;47.744;10.580;2023-03-03T12:18:54;60.50;;;29.60;;
4278;SDS011;2153;47.744;10.580;2023-03-03T12:21:36;65.87;;;34.27;;
4278;SDS011;2153;47.744;10.580;2023-03-03T12:24:17;63.23;;;29.70;;
4278;SDS011;2153;47.744;10.580;2023-03-03T12:26:57;64.57;;;29.40;;
4278;SDS011;2153;47.744;10.580;2023-03-03T12:29:38;63.67;;;29.10;;
4278;SDS011;2153;47.744;10.580;2023-03-03T12:32:14;82.00;;;31.97;;
4278;SDS011;2153;47.744;10.580;2023-03-03T12:34:49;61.37;;;27.53;;
4278;SDS011;2153;47.744;10.580;2023-03-03T12:37:27;61.33;;;28.60;;
4278;SDS011;2153;47.744;10.580;2023-03-03T12:40:09;67.43;;;28.73;;
4278;SDS011;2153;47.744;10.580;2023-03-03T12:42:45;62.43;;;28.50;;
4278;SDS011;2153;47.744;10.580;2023-03-03T12:45:26;80.43;;;34.73;;
4278;SDS011;2153;47.744;10.580;2023-03-03T12:48:05;61.38;;;29.92;;
4278;SDS011;2153;47.744;10.580;2023-03-03T12:50:36;63.07;;;29.90;;
4278;SDS011;2153;47.744;10.580;2023-03-03T12:53:19;71.80;;;28.33;;
4278;SDS011;2153;47.744;10.580;2023-03-03T12:55:59;70.17;;;31.70;;
4278;SDS011;2153;47.744;10.580;2023-03-03T12:58:36;56.90;;;26.97;;
4278;SDS011;2153;47.744;10.580;2023-03-03T13:01:26;64.43;;;30.70;;
4278;SDS011;2153;47.744;10.580;2023-03-03T13:04:10;62.07;;;30.17;;
4278;SDS011;2153;47.744;10.580;2023-03-03T13:06:50;63.77;;;28.87;;
4278;SDS011;2153;47.744;10.580;2023-03-03T13:09:27;63.37;;;29.37;;
4278;SDS011;2153;47.744;10.580;2023-03-03T13:12:03;75.00;;;31.70;;
4278;SDS011;2153;47.744;10.580;2023-03-03T13:14:44;71.20;;;30.63;;
4278;SDS011;2153;47.744;10.580;2023-03-03T13:17:17;77.00;;;30.73;;
4278;SDS011;2153;47.744;10.580;2023-03-03T13:19:49;70.63;;;32.80;;
4278;SDS011;2153;47.744;10.580;2023-03-03T13:22:23;67.10;;;30.50;;
4278;SDS011;2153;47.744;10.580;2023-03-03T13:25:08;70.50;;;31.70;;
4278;SDS011;2153;47.744;10.580;2023-03-03T13:27:50;73.30;;;31.97;;
4278;SDS011;2153;47.744;10.580;2023-03-03T13:30:21;64.63;;;28.97;;
4278;SDS011;2153;47.744;10.580;2023-03-03T13:32:52;74.67;;;30.93;;
4278;SDS011;2153;47.744;10.580;2023-03-03T13:35:28;77.90;;;33.20;;
4278;SDS011;2153;47.744;10.580;2023-03-03T13:37:58;73.07;;;33.63;;
4278;SDS011;2153;47.744;10.580;2023-03-03T13:40:30;70.77;;;32.30;;
4278;SDS011;2153;47.744;10.580;2023-03-03T13:43:07;74.43;;;32.50;;
4278;SDS011;2153;47.744;10.580;2023-03-03T13:45:42;78.70;;;34.00;;
4278;SDS011;2153;47.744;10.580;2023-03-03T13:48:26;76.10;;;36.80;;
4278;SDS011;2153;47.744;10.580;2023-03-03T13:51:03;77.77;;;36.77;;
4278;SDS011;2153;47.744;10.580;2023-03-03T13:53:42;69.22;;;31.42;;
4278;SDS011;2153;47.744;10.580;2023-03-03T13:56:26;68.73;;;32.03;;
4278;SDS011;2153;47.744;10.580;2023-03-03T13:59:02;70.17;;;30.50;;
4278;SDS011;2153;47.744;10.580;2023-03-03T14:01:41;68.20;;;32.40;;
4278;SDS011;2153;47.744;10.580;2023-03-03T14:04:18;80.97;;;33.50;;
4278;SDS011;2153;47.744;10.580;2023-03-03T14:06:59;74.20;;;33.85;;
4278;SDS011;2153;47.744;10.580;2023-03-03T14:09:38;77.50;;;34.83;;
4278;SDS011;2153;47.744;10.580;2023-03-03T14:12:17;76.23;;;34.40;;
4278;SDS011;2153;47.744;10.580;2023-03-03T14:14:51;86.63;;;36.43;;
4278;SDS011;2153;47.744;10.580;2023-03-03T14:17:27;86.32;;;39.08;;
4278;SDS011;2153;47.744;10.580;2023-03-03T14:20:00;75.30;;;36.97;;
4278;SDS011;2153;47.744;10.580;2023-03-03T14:22:39;97.97;;;43.20;;
4278;SDS011;2153;47.744;10.580;2023-03-03T14:25:11;75.13;;;36.28;;
4278;SDS011;2153;47.744;10.580;2023-03-03T14:27:51;77.43;;;34.50;;
4278;SDS011;2153;47.744;10.580;2023-03-03T14:30:29;72.43;;;33.60;;
4278;SDS011;2153;47.744;10.580;2023-03-03T14:32:58;80.00;;;35.20;;
4278;SDS011;2153;47.744;10.580;2023-03-03T14:35:41;79.03;;;34.65;;
4278;SDS011;2153;47.744;10.580;2023-03-03T14:38:14;88.43;;;42.80;;
4278;SDS011;2153;47.744;10.580;2023-03-03T14:40:43;86.30;;;37.53;;
4278;SDS011;2153;47.744;10.580;2023-03-03T14:43:23;79.70;;;33.43;;
4278;SDS011;2153;47.744;10.580;2023-03-03T14:45:51;93.00;;;44.93;;
4278;SDS011;2153;47.744;10.580;2023-03-03T14:48:19;96.60;;;45.28;;
4278;SDS011;2153;47.744;10.580;2023-03-03T14:50:49;82.65;;;36.17;;
4278;SDS011;2153;47.744;10.580;2023-03-03T14:53:21;71.95;;;33.40;;
4278;SDS011;2153;47.744;10.580;2023-03-03T14:56:13;77.00;;;33.57;;
4278;SDS011;2153;47.744;10.580;2023-03-03T14:58:49;74.83;;;34.60;;
4278;SDS011;2153;47.744;10.580;2023-03-03T15:01:20;83.18;;;38.67;;
4278;SDS011;2153;47.744;10.580;2023-03-03T15:03:51;81.10;;;35.27;;
4278;SDS011;2153;47.744;10.580;2023-03-03T15:06:28;79.00;;;35.30;;
4278;SDS011;2153;47.744;10.580;2023-03-03T15:11:54;103.20;;;38.33;;
4278;SDS011;2153;47.744;10.580;2023-03-03T15:14:27;85.82;;;36.13;;
4278;SDS011;2153;47.744;10.580;2023-03-03T15:16:56;84.95;;;39.05;;
4278;SDS011;2153;47.744;10.580;2023-03-03T15:19:43;81.47;;;38.90;;
4278;SDS011;2153;47.744;10.580;2023-03-03T15:22:21;87.35;;;39.95;;
4278;SDS011;2153;47.744;10.580;2023-03-03T15:25:03;90.05;;;40.63;;
4278;SDS011;2153;47.744;10.580;2023-03-03T15:27:38;91.43;;;45.03;;